Time;durP1;ratioP1;P1;durP2;ratioP2;P2;SDS_P1;SDS_P2;PMS_P1;PMS_P2;Temp;Humidity;BMP_temperature;BMP_pressure;BME280_temperature;BME280_humidity;BME280_pressure;Samples;Min_cycle;Max_cycle;Signal;HPM_P1;HPM_P2
2023/05/02 00:00:08;;;;;;;2.90;1.00;;;;;;;11.92;38.17;101284.83;108132;1285;21987;-59
2023/05/02 00:02:35;;;;;;;2.90;1.10;;;;;;;11.90;38.20;101281.48;108174;1285;21989;-58
2023/05/02 00:05:00;;;;;;;3.20;1.10;;;;;;;11.87;38.19;101282.38;108120;1285;21991;-58
2023/05/02 00:07:27;;;;;;;2.20;0.90;;;;;;;11.86;38.40;101283.27;108157;1285;22946;-58
2023/05/02 00:09:53;;;;;;;2.40;1.00;;;;;;;11.82;38.51;101282.73;108081;1285;21986;-58
2023/05/02 00:12:19;;;;;;;2.90;1.00;;;;;;;11.79;38.48;101284.33;108173;1285;23602;-58
2023/05/02 00:14:44;;;;;;;2.80;1.20;;;;;;;11.77;38.44;101284.34;108139;1285;23667;-58
2023/05/02 00:17:18;;;;;;;3.50;1.20;;;;;;;11.76;38.42;101284.52;108127;1285;21990;-58
2023/05/02 00:19:44;;;;;;;2.50;1.20;;;;;;;11.78;38.49;101289.62;108135;1286;23741;-58
2023/05/02 00:22:09;;;;;;;3.00;1.20;;;;;;;11.79;38.44;101290.14;108126;1286;21984;-58
2023/05/02 00:24:37;;;;;;;3.10;1.30;;;;;;;11.80;38.36;101291.19;108091;1286;21988;-58
2023/05/02 00:27:03;;;;;;;2.70;1.00;;;;;;;11.79;38.34;101293.12;108125;1285;22240;-58
2023/05/02 00:29:29;;;;;;;1.60;1.00;;;;;;;11.78;38.43;101293.83;108161;1285;21995;-59
2023/05/02 00:31:56;;;;;;;2.30;1.30;;;;;;;11.74;38.48;101297.35;108194;1285;21987;-57
2023/05/02 00:34:23;;;;;;;2.80;1.20;;;;;;;11.70;38.47;101295.61;108230;1285;22003;-58
2023/05/02 00:36:49;;;;;;;2.60;0.90;;;;;;;11.65;38.51;101299.66;108175;1285;23637;-58
2023/05/02 00:39:15;;;;;;;2.90;0.90;;;;;;;11.62;38.50;101300.73;108198;1285;22458;-58
2023/05/02 00:41:41;;;;;;;2.10;1.00;;;;;;;11.60;38.44;101300.73;108115;1285;23039;-59
2023/05/02 00:44:07;;;;;;;2.30;1.00;;;;;;;11.59;38.37;101300.55;108111;1285;21982;-58
2023/05/02 00:46:34;;;;;;;5.20;1.00;;;;;;;11.60;38.28;101303.38;108240;1272;22009;-58
2023/05/02 00:49:00;;;;;;;1.90;0.80;;;;;;;11.61;38.54;101301.79;108255;1285;23879;-57
2023/05/02 00:51:26;;;;;;;2.50;1.20;;;;;;;11.60;38.34;101302.31;108087;1285;22096;-58
2023/05/02 00:53:52;;;;;;;2.50;1.00;;;;;;;11.58;38.48;101301.61;108165;1280;21988;-59
2023/05/02 00:56:17;;;;;;;3.20;1.00;;;;;;;11.56;38.56;101302.14;108124;1285;21980;-58
2023/05/02 00:58:43;;;;;;;2.40;1.20;;;;;;;11.52;38.51;101303.02;108135;1285;21988;-58
2023/05/02 01:01:11;;;;;;;7.00;1.20;;;;;;;11.48;38.37;101307.08;108135;1285;21978;-59
2023/05/02 01:03:52;;;;;;;2.60;1.00;;;;;;;11.46;38.61;101304.98;108126;1285;23709;-58
2023/05/02 01:06:43;;;;;;;5.00;1.20;;;;;;;11.45;38.54;101307.97;108164;1285;24313;-58
2023/05/02 01:09:11;;;;;;;3.00;1.00;;;;;;;11.43;38.63;101308.66;108169;1285;21977;-57
2023/05/02 01:12:04;;;;;;;2.50;1.00;;;;;;;11.41;38.53;101308.50;108206;1285;21980;-59
2023/05/02 01:14:33;;;;;;;2.10;0.80;;;;;;;11.39;38.66;101309.20;108136;1285;21986;-57
2023/05/02 01:17:03;;;;;;;2.70;1.00;;;;;;;11.37;38.61;101309.38;108182;1284;22444;-58
2023/05/02 01:19:32;;;;;;;4.50;1.40;;;;;;;11.35;38.57;101311.83;108143;1284;21971;-59
2023/05/02 01:21:57;;;;;;;4.70;1.40;;;;;;;11.34;38.72;101311.13;108278;1285;23692;-58
2023/05/02 01:24:33;;;;;;;4.50;1.10;;;;;;;11.32;38.64;101310.42;108171;1285;21989;-58
2023/05/02 01:27:15;;;;;;;3.50;0.90;;;;;;;11.30;38.54;101310.41;108158;1285;23752;-58
2023/05/02 01:29:41;;;;;;;1.90;0.90;;;;;;;11.28;38.53;101310.42;108267;1285;21991;-58
2023/05/02 01:32:06;;;;;;;3.80;1.20;;;;;;;11.27;38.62;101310.42;108165;1285;21979;-58
2023/05/02 01:34:33;;;;;;;3.90;1.40;;;;;;;11.25;38.53;101311.84;108027;1285;21973;-58
2023/05/02 01:36:58;;;;;;;3.90;1.00;;;;;;;11.24;38.60;101314.30;108101;1285;21992;-58
2023/05/02 01:39:24;;;;;;;2.70;1.00;;;;;;;11.24;38.64;101313.25;108310;1285;21993;-57
2023/05/02 01:41:52;;;;;;;2.60;1.30;;;;;;;11.23;38.56;101313.42;108186;1285;21998;-58
2023/05/02 01:44:19;;;;;;;2.70;1.00;;;;;;;11.21;38.70;101317.28;108285;1285;21980;-57
2023/05/02 01:46:45;;;;;;;1.00;0.90;;;;;;;11.20;38.65;101314.99;108166;1285;21986;-58
2023/05/02 01:49:10;;;;;;;2.50;0.90;;;;;;;11.21;38.73;101315.52;108220;1285;22036;-58
2023/05/02 01:51:40;;;;;;;3.50;0.90;;;;;;;11.20;38.80;101315.54;108120;1285;21980;-57
2023/05/02 01:54:07;;;;;;;4.10;1.30;;;;;;;11.19;39.03;101313.77;108179;1285;21980;-58
2023/05/02 01:56:35;;;;;;;2.10;1.10;;;;;;;11.18;38.95;101316.59;108198;1285;22097;-58
2023/05/02 01:59:07;;;;;;;4.30;1.50;;;;;;;11.16;38.84;101319.91;108116;1285;21984;-57
2023/05/02 02:01:34;;;;;;;2.80;1.60;;;;;;;11.13;38.85;101317.27;108175;1285;23618;-58
2023/05/02 02:04:00;;;;;;;2.50;1.10;;;;;;;11.10;38.94;101323.59;107440;1285;1002408;-58
2023/05/02 02:06:26;;;;;;;11.00;1.90;;;;;;;11.07;38.90;101329.02;108148;1285;21988;-58
2023/05/02 02:08:52;;;;;;;4.00;1.00;;;;;;;11.07;38.96;101327.80;108144;1285;23620;-58
2023/05/02 02:11:23;;;;;;;4.30;1.20;;;;;;;11.05;38.88;101326.05;108102;1285;22146;-58
2023/05/02 02:13:53;;;;;;;2.00;1.20;;;;;;;11.03;38.88;101327.98;108090;1285;21982;-58
2023/05/02 02:16:23;;;;;;;2.10;1.10;;;;;;;11.01;38.93;101326.41;107352;1285;1002290;-58
2023/05/02 02:18:49;;;;;;;3.30;1.40;;;;;;;11.01;38.94;101326.59;108093;1285;22027;-58
2023/05/02 02:21:16;;;;;;;2.50;0.90;;;;;;;11.00;38.97;101328.87;107941;1285;24167;-59
2023/05/02 02:23:42;;;;;;;2.20;1.00;;;;;;;10.99;38.91;101329.73;108162;1285;23051;-57
2023/05/02 02:26:08;;;;;;;3.40;1.20;;;;;;;11.00;39.20;101330.27;108093;1280;23638;-57
2023/05/02 02:28:35;;;;;;;3.20;1.10;;;;;;;11.00;39.08;101330.10;108176;1285;22114;-57
2023/05/02 02:31:00;;;;;;;3.40;1.50;;;;;;;11.00;39.12;101338.17;108091;1285;21985;-56
2023/05/02 02:33:29;;;;;;;4.90;1.10;;;;;;;11.00;39.10;101336.94;108081;1285;21994;-57
2023/05/02 02:36:13;;;;;;;5.80;1.40;;;;;;;10.98;39.19;101336.42;108126;1285;21982;-57
2023/05/02 02:38:47;;;;;;;3.30;1.30;;;;;;;10.96;39.14;101338.17;108079;1283;21984;-57
2023/05/02 02:41:21;;;;;;;2.30;1.40;;;;;;;10.93;39.29;101339.92;107330;1285;1002371;-57
2023/05/02 02:44:03;;;;;;;2.40;1.40;;;;;;;10.89;39.37;101344.30;108118;1285;22448;-57
2023/05/02 02:46:40;;;;;;;2.50;1.10;;;;;;;10.84;39.22;101350.79;108131;1285;23658;-58
2023/05/02 02:49:25;;;;;;;3.70;1.20;;;;;;;10.79;39.16;101353.41;108148;1285;21951;-57
2023/05/02 02:52:12;;;;;;;1.60;0.60;;;;;;;10.75;39.41;101357.79;108064;1285;21983;-57
2023/05/02 02:54:58;;;;;;;5.70;1.20;;;;;;;10.73;39.45;101362.17;108072;1285;22981;-57
2023/05/02 02:57:29;;;;;;;1.90;0.90;;;;;;;10.73;39.44;101361.82;108110;1285;21988;-57
2023/05/02 03:00:17;;;;;;;3.70;1.50;;;;;;;10.73;39.51;101356.38;108150;1285;23744;-57
2023/05/02 03:02:43;;;;;;;4.00;1.70;;;;;;;10.73;39.81;101357.96;108112;1285;22021;-58
2023/05/02 03:05:09;;;;;;;4.30;1.60;;;;;;;10.72;39.65;101361.30;108047;1285;23635;-57
2023/05/02 03:07:35;;;;;;;2.90;1.50;;;;;;;10.68;39.80;101359.17;108147;1285;21980;-57
2023/05/02 03:10:02;;;;;;;5.50;2.00;;;;;;;10.64;39.84;101363.19;108073;1285;21984;-57
2023/05/02 03:12:28;;;;;;;4.00;1.30;;;;;;;10.59;39.88;101363.89;108084;1283;21968;-57
2023/05/02 03:14:57;;;;;;;3.00;1.50;;;;;;;10.55;39.94;101364.75;108069;1285;23761;-57
2023/05/02 03:17:22;;;;;;;2.60;1.10;;;;;;;10.54;39.95;101363.34;108223;1285;22022;-57
2023/05/02 03:19:48;;;;;;;3.10;1.20;;;;;;;10.56;39.97;101367.58;108222;1285;22011;-57
2023/05/02 03:22:14;;;;;;;2.20;1.00;;;;;;;10.62;40.09;101372.48;108115;1285;21978;-57
2023/05/02 03:24:40;;;;;;;2.70;1.00;;;;;;;10.67;40.09;101372.67;108077;1285;21980;-57
2023/05/02 03:27:06;;;;;;;2.70;1.20;;;;;;;10.74;40.15;101375.34;108216;1283;23743;-58
2023/05/02 03:29:31;;;;;;;3.70;1.30;;;;;;;10.80;40.40;101378.35;108101;1285;22039;-56
2023/05/02 03:31:57;;;;;;;3.50;1.60;;;;;;;10.87;40.56;101382.92;108096;1285;23658;-56
2023/05/02 03:34:23;;;;;;;5.60;1.60;;;;;;;10.96;40.52;101382.59;108147;1285;21993;-56
2023/05/02 03:36:49;;;;;;;5.40;1.40;;;;;;;11.05;40.54;101385.77;108111;1285;22995;-57
2023/05/02 03:39:14;;;;;;;3.40;1.30;;;;;;;11.13;40.43;101385.08;108224;1285;21977;-57
2023/05/02 03:41:41;;;;;;;2.80;1.40;;;;;;;11.20;40.40;101386.85;108219;1285;23638;-58
2023/05/02 03:44:06;;;;;;;4.80;1.50;;;;;;;11.30;40.60;101391.95;108145;1285;23704;-57
2023/05/02 03:46:32;;;;;;;3.10;1.40;;;;;;;11.43;40.87;101396.36;108073;1285;21990;-58
2023/05/02 03:48:58;;;;;;;3.20;1.20;;;;;;;11.59;40.95;101394.60;108102;1285;21991;-57
2023/05/02 03:51:24;;;;;;;12.60;1.90;;;;;;;11.74;40.70;101394.24;108086;1285;21988;-58
2023/05/02 03:53:50;;;;;;;11.90;2.10;;;;;;;11.85;40.76;101392.12;108121;1282;21980;-58
2023/05/02 03:56:18;;;;;;;10.70;1.70;;;;;;;11.95;40.88;101396.33;107343;1285;1003182;-58
2023/05/02 03:58:45;;;;;;;7.80;1.60;;;;;;;12.05;40.78;101392.46;107397;1285;1002848;-58
2023/05/02 04:01:14;;;;;;;5.80;1.70;;;;;;;12.15;40.95;101390.69;108145;1285;21984;-58
2023/05/02 04:03:41;;;;;;;7.80;2.00;;;;;;;12.24;41.10;101393.13;108244;1285;24322;-58
2023/05/02 04:06:07;;;;;;;5.80;1.70;;;;;;;12.33;41.11;101390.10;108133;1285;23050;-58
2023/05/02 04:08:34;;;;;;;7.10;1.30;;;;;;;12.45;41.22;101394.46;108186;1285;21981;-59
2023/05/02 04:11:00;;;;;;;4.10;1.30;;;;;;;12.56;41.38;101395.30;108250;1285;22458;-57
2023/05/02 04:13:25;;;;;;;3.10;1.20;;;;;;;12.68;41.43;101395.94;108194;1285;21991;-58
2023/05/02 04:15:51;;;;;;;4.70;1.50;;;;;;;12.80;41.30;101401.34;108141;1285;21983;-59
2023/05/02 04:18:16;;;;;;;5.30;1.30;;;;;;;12.92;41.32;101404.29;108124;1285;21988;-58
2023/05/02 04:20:44;;;;;;;5.10;1.70;;;;;;;13.07;41.40;101405.06;108050;1285;21980;-58
2023/05/02 04:23:09;;;;;;;2.20;1.50;;;;;;;13.21;41.18;101404.98;108197;1285;21982;-58
2023/05/02 04:25:35;;;;;;;3.70;1.10;;;;;;;13.36;41.41;101407.88;108119;1282;21986;-59
2023/05/02 04:28:01;;;;;;;5.50;1.70;;;;;;;13.53;41.61;101409.19;108121;1285;21985;-58
2023/05/02 04:30:27;;;;;;;3.90;1.70;;;;;;;13.75;41.58;101408.64;108083;1285;22139;-58
2023/05/02 04:32:52;;;;;;;2.90;1.70;;;;;;;13.94;41.32;101414.45;108079;1283;21985;-59
2023/05/02 04:35:18;;;;;;;4.80;1.20;;;;;;;14.07;41.20;101417.52;108087;1285;23637;-58
2023/05/02 04:37:44;;;;;;;3.50;1.30;;;;;;;14.19;41.07;101420.73;108069;1285;23635;-59
2023/05/02 04:40:10;;;;;;;2.80;1.30;;;;;;;14.29;40.98;101422.41;108060;1285;22014;-59
2023/05/02 04:42:36;;;;;;;2.90;1.30;;;;;;;14.41;40.98;101425.45;108123;1285;23635;-59
2023/05/02 04:45:01;;;;;;;3.90;1.70;;;;;;;14.54;41.17;101431.46;108076;1285;21984;-59
2023/05/02 04:47:27;;;;;;;3.30;2.00;;;;;;;14.69;41.14;101438.38;108077;1277;21984;-58
2023/05/02 04:49:53;;;;;;;4.50;1.60;;;;;;;14.83;41.15;101436.98;108107;1285;22018;-58
2023/05/02 04:52:18;;;;;;;4.10;1.80;;;;;;;14.96;41.03;101437.69;108091;1285;23638;-59
2023/05/02 04:54:44;;;;;;;6.20;1.80;;;;;;;15.10;41.10;101442.10;108111;1285;22023;-59
2023/05/02 04:57:10;;;;;;;4.90;2.20;;;;;;;15.22;41.07;101444.04;108215;1282;22040;-60
2023/05/02 04:59:37;;;;;;;7.10;2.30;;;;;;;15.35;41.20;101443.67;108078;1285;21983;-60
2023/05/02 05:02:03;;;;;;;6.10;2.10;;;;;;;15.53;41.35;101446.75;108113;1285;21980;-59
2023/05/02 05:04:29;;;;;;;4.10;1.50;;;;;;;15.75;41.44;101445.51;108238;1285;23696;-60
2023/05/02 05:06:54;;;;;;;4.50;1.40;;;;;;;16.03;41.74;101440.27;108170;1284;22022;-60
2023/05/02 05:09:20;;;;;;;4.50;1.50;;;;;;;16.42;41.82;101437.06;108144;1285;23616;-60
2023/05/02 05:11:46;;;;;;;3.40;1.90;;;;;;;16.79;41.47;101437.91;108161;1285;21998;-59
2023/05/02 05:14:11;;;;;;;4.50;2.00;;;;;;;17.15;41.38;101437.34;108164;1285;21983;-60
2023/05/02 05:16:37;;;;;;;4.50;1.90;;;;;;;17.48;41.50;101442.59;108112;1285;21977;-61
2023/05/02 05:19:03;;;;;;;4.20;1.80;;;;;;;17.77;41.04;101439.93;108172;1285;21980;-60
2023/05/02 05:21:29;;;;;;;4.40;1.90;;;;;;;18.04;40.83;101439.63;108222;1285;21980;-61
2023/05/02 05:23:55;;;;;;;4.60;1.90;;;;;;;18.30;40.50;101438.21;108195;1285;21982;-59
2023/05/02 05:26:22;;;;;;;3.50;1.80;;;;;;;18.57;40.49;101439.58;108183;1285;23638;-59
2023/05/02 05:28:49;;;;;;;3.20;1.80;;;;;;;18.82;40.09;101443.30;108141;1283;22021;-59
2023/05/02 05:31:16;;;;;;;4.70;2.00;;;;;;;19.06;39.97;101443.66;108126;1286;22416;-59
2023/05/02 05:33:41;;;;;;;3.20;1.70;;;;;;;19.28;39.71;101445.84;108175;1286;23071;-59
2023/05/02 05:36:08;;;;;;;3.70;1.80;;;;;;;19.50;39.48;101447.08;108133;1286;23712;-60
2023/05/02 05:38:34;;;;;;;4.00;1.70;;;;;;;19.71;39.20;101448.71;108194;1286;21986;-60
2023/05/02 05:41:00;;;;;;;6.70;2.00;;;;;;;19.91;38.89;101448.60;108108;1286;21998;-61
2023/05/02 05:43:27;;;;;;;5.90;2.00;;;;;;;20.10;38.73;101450.09;108161;1286;21984;-60
2023/05/02 05:45:53;;;;;;;13.70;2.20;;;;;;;20.31;38.57;101445.08;108195;1286;22040;-60
2023/05/02 05:48:19;;;;;;;4.50;1.60;;;;;;;20.53;38.32;101446.05;108171;1286;21990;-60
2023/05/02 05:50:45;;;;;;;3.40;1.50;;;;;;;20.75;38.31;101444.54;108126;1286;21988;-61
2023/05/02 05:53:11;;;;;;;4.30;1.30;;;;;;;20.95;38.04;101441.13;108183;1285;21982;-60
2023/05/02 05:55:37;;;;;;;3.10;1.20;;;;;;;21.12;37.72;101439.55;108126;1286;21990;-60
2023/05/02 05:58:03;;;;;;;3.00;1.30;;;;;;;21.27;37.49;101442.56;108201;1286;21988;-60
2023/05/02 06:00:29;;;;;;;4.10;1.20;;;;;;;21.38;37.28;101445.16;108128;1286;21983;-60
2023/05/02 06:02:55;;;;;;;8.50;1.40;;;;;;;21.51;37.29;101441.23;108217;1286;21992;-61
2023/05/02 06:05:21;;;;;;;5.60;2.00;;;;;;;21.69;37.27;101440.13;108190;1285;22904;-60
2023/05/02 06:07:46;;;;;;;4.80;2.10;;;;;;;21.96;37.25;101442.41;108060;1286;21986;-60
2023/05/02 06:10:12;;;;;;;6.40;1.60;;;;;;;22.18;37.08;101444.13;108132;1286;24064;-61
2023/05/02 06:12:38;;;;;;;2.30;1.60;;;;;;;22.38;36.87;101444.89;108143;1286;21983;-60
2023/05/02 06:15:04;;;;;;;4.20;1.60;;;;;;;22.59;36.78;101447.16;108075;1285;21989;-61
2023/05/02 06:17:31;;;;;;;5.50;1.60;;;;;;;22.81;36.37;101450.98;108109;1286;22045;-60
2023/05/02 06:19:56;;;;;;;3.20;1.50;;;;;;;23.00;36.22;101449.55;107989;1286;190761;-60
2023/05/02 06:22:22;;;;;;;3.00;1.30;;;;;;;23.17;36.17;101448.04;108149;1286;22005;-60
2023/05/02 06:24:48;;;;;;;4.10;1.10;;;;;;;23.41;36.13;101454.23;108163;1286;22448;-60
2023/05/02 06:27:13;;;;;;;3.90;1.50;;;;;;;23.61;35.99;101453.80;108110;1286;22449;-60
2023/05/02 06:29:39;;;;;;;3.70;1.40;;;;;;;23.84;35.79;101455.33;108174;1286;21991;-60
2023/05/02 06:32:05;;;;;;;3.30;1.30;;;;;;;24.04;35.37;101457.52;108118;1286;21994;-60
2023/05/02 06:34:34;;;;;;;5.90;1.40;;;;;;;24.18;35.15;101459.88;108142;1286;21996;-61
2023/05/02 06:37:02;;;;;;;3.80;1.20;;;;;;;24.33;35.10;101454.28;108188;1286;21954;-60
2023/05/02 06:39:28;;;;;;;2.80;1.30;;;;;;;24.47;35.06;101454.25;108214;1286;21987;-60
2023/05/02 06:41:57;;;;;;;4.50;1.30;;;;;;;24.59;34.76;101453.58;108118;1286;21985;-61
2023/05/02 06:44:22;;;;;;;3.00;1.60;;;;;;;24.74;34.75;101455.48;108162;1286;21986;-61
2023/05/02 06:46:49;;;;;;;2.30;1.20;;;;;;;24.93;34.45;101454.30;108168;1286;21991;-60
2023/05/02 06:49:15;;;;;;;6.80;1.70;;;;;;;25.06;33.74;101451.38;108121;1286;22449;-58
2023/05/02 06:51:41;;;;;;;3.10;1.10;;;;;;;25.18;33.95;101456.29;108143;1286;21990;-60
2023/05/02 06:54:07;;;;;;;4.50;1.30;;;;;;;25.35;33.84;101455.87;108211;1286;21982;-59
2023/05/02 06:56:34;;;;;;;3.00;1.00;;;;;;;25.53;33.82;101456.30;108149;1286;22935;-60
2023/05/02 06:58:59;;;;;;;2.60;1.10;;;;;;;25.71;33.71;101459.71;108202;1286;22026;-58
2023/05/02 07:01:25;;;;;;;2.90;1.10;;;;;;;25.90;33.52;101461.14;108159;1286;22021;-58
2023/05/02 07:03:51;;;;;;;3.20;1.20;;;;;;;26.12;33.41;101461.10;108170;1285;21982;-58
2023/05/02 07:06:17;;;;;;;4.10;1.40;;;;;;;26.39;33.15;101459.80;108137;1286;21983;-60
2023/05/02 07:08:43;;;;;;;2.20;0.90;;;;;;;26.61;32.87;101461.15;108196;1285;22066;-60
2023/05/02 07:11:08;;;;;;;3.50;1.00;;;;;;;26.80;32.92;101460.70;108162;1286;21986;-60
2023/05/02 07:13:34;;;;;;;3.00;1.20;;;;;;;26.99;32.49;101461.70;108145;1286;22025;-59
2023/05/02 07:16:00;;;;;;;2.00;1.10;;;;;;;27.16;32.55;101459.11;108147;1285;21988;-61
2023/05/02 07:18:25;;;;;;;2.40;0.70;;;;;;;27.34;32.50;101456.34;108247;1286;21987;-60
2023/05/02 07:20:51;;;;;;;2.40;1.00;;;;;;;27.56;32.44;101457.22;108221;1286;21994;-62
2023/05/02 07:23:17;;;;;;;2.50;1.10;;;;;;;27.78;32.06;101460.64;108219;1286;22021;-60
2023/05/02 07:25:43;;;;;;;2.30;0.80;;;;;;;27.95;31.45;101461.25;108120;1285;21982;-60
2023/05/02 07:28:08;;;;;;;3.40;1.10;;;;;;;28.10;31.25;101465.14;108156;1285;21980;-60
2023/05/02 07:30:34;;;;;;;2.90;1.00;;;;;;;28.24;31.38;101465.80;108165;1285;23513;-60
2023/05/02 07:33:00;;;;;;;4.60;1.10;;;;;;;28.42;31.21;101466.72;108203;1285;21993;-59
2023/05/02 07:35:25;;;;;;;3.00;1.10;;;;;;;28.55;31.02;101468.11;108137;1284;21993;-60
2023/05/02 07:37:51;;;;;;;2.80;1.00;;;;;;;28.71;30.95;101467.39;108170;1285;21988;-59
2023/05/02 07:40:17;;;;;;;2.60;1.00;;;;;;;28.83;30.49;101463.81;108150;1285;21989;-59
2023/05/02 07:42:43;;;;;;;1.70;0.90;;;;;;;28.95;30.06;101465.33;108199;1285;21994;-60
2023/05/02 07:45:09;;;;;;;2.90;0.90;;;;;;;29.00;29.08;101464.95;108164;1285;21988;-60
2023/05/02 07:47:35;;;;;;;8.60;1.10;;;;;;;29.01;28.16;101468.52;108239;1285;22020;-60
2023/05/02 07:50:03;;;;;;;2.50;1.00;;;;;;;28.98;28.03;101471.96;108158;1285;21973;-60
2023/05/02 07:52:29;;;;;;;3.50;0.90;;;;;;;28.99;27.32;101474.21;108247;1285;22070;-60
2023/05/02 07:54:55;;;;;;;2.40;0.80;;;;;;;28.98;27.50;101477.40;108163;1285;21992;-60
2023/05/02 07:57:21;;;;;;;5.30;1.00;;;;;;;29.08;28.06;101479.91;108240;1283;21991;-61
2023/05/02 07:59:46;;;;;;;2.00;0.90;;;;;;;29.32;28.70;101479.45;108219;1285;21993;-60
2023/05/02 08:02:12;;;;;;;2.00;0.90;;;;;;;29.60;28.02;101477.34;108130;1285;21983;-60
2023/05/02 08:04:39;;;;;;;4.90;1.00;;;;;;;29.84;27.68;101470.69;108229;1285;21981;-60
2023/05/02 08:07:04;;;;;;;2.90;0.80;;;;;;;30.10;28.17;101468.01;108159;1285;21985;-61
2023/05/02 08:09:30;;;;;;;1.30;0.80;;;;;;;30.32;27.88;101470.59;108214;1285;21984;-60
2023/05/02 08:11:56;;;;;;;4.20;1.20;;;;;;;30.55;28.09;101474.98;108097;1285;21981;-62
2023/05/02 08:14:22;;;;;;;2.40;0.90;;;;;;;30.84;28.08;101473.95;108106;1282;22004;-60
2023/05/02 08:16:47;;;;;;;3.20;1.00;;;;;;;30.98;27.21;101475.30;108101;1285;21993;-60
2023/05/02 08:19:14;;;;;;;4.10;1.00;;;;;;;31.03;26.49;101473.30;108051;1285;21984;-62
2023/05/02 08:21:41;;;;;;;3.30;1.00;;;;;;;30.97;25.22;101470.30;108076;1285;22500;-61
2023/05/02 08:24:06;;;;;;;3.40;0.60;;;;;;;30.84;26.22;101473.38;108214;1283;21985;-60
2023/05/02 08:26:33;;;;;;;2.80;0.80;;;;;;;30.97;26.83;101472.71;108193;1285;21985;-64
2023/05/02 08:28:58;;;;;;;6.20;1.40;;;;;;;31.20;26.73;101472.80;108272;1280;23419;-60
2023/05/02 08:31:24;;;;;;;7.00;1.00;;;;;;;31.46;26.74;101469.01;108172;1285;23639;-63
2023/05/02 08:33:50;;;;;;;3.30;0.80;;;;;;;31.66;25.43;101466.08;108265;1285;23619;-63
2023/05/02 08:36:16;;;;;;;2.00;0.90;;;;;;;31.49;24.62;101464.98;108167;1285;21985;-63
2023/05/02 08:38:43;;;;;;;1.80;0.80;;;;;;;31.33;25.37;101463.39;108196;1285;22877;-60
2023/05/02 08:41:10;;;;;;;2.80;1.10;;;;;;;31.41;25.22;101462.02;108099;1285;21984;-62
2023/05/02 08:43:37;;;;;;;3.70;1.50;;;;;;;31.57;25.96;101463.97;108148;1285;23771;-63
2023/05/02 08:46:06;;;;;;;2.90;0.90;;;;;;;31.89;26.30;101471.60;108228;1285;22042;-60
2023/05/02 08:48:32;;;;;;;3.40;0.80;;;;;;;32.22;26.51;101470.42;108196;1285;21993;-63
2023/05/02 08:50:58;;;;;;;3.30;1.20;;;;;;;32.50;26.30;101467.31;108052;1281;23074;-60
2023/05/02 08:53:23;;;;;;;2.70;0.80;;;;;;;32.81;26.15;101461.61;108165;1285;21964;-60
2023/05/02 08:55:50;;;;;;;3.20;0.90;;;;;;;33.09;25.92;101456.73;108146;1285;22000;-63
2023/05/02 08:58:16;;;;;;;2.40;1.00;;;;;;;33.18;25.41;101456.98;108144;1285;23609;-62
2023/05/02 09:00:42;;;;;;;2.80;1.20;;;;;;;33.36;25.95;101454.10;108143;1285;21984;-63
2023/05/02 09:03:17;;;;;;;3.50;1.00;;;;;;;33.61;25.79;101457.42;108171;1285;21977;-63
2023/05/02 09:05:43;;;;;;;3.70;0.90;;;;;;;33.76;25.24;101452.80;108183;1285;22051;-62
2023/05/02 09:08:09;;;;;;;2.40;0.80;;;;;;;33.83;25.31;101449.92;108166;1285;21986;-61
2023/05/02 09:10:37;;;;;;;2.10;0.90;;;;;;;33.87;25.55;101452.52;108126;1285;22025;-63
2023/05/02 09:13:38;;;;;;;3.40;1.00;;;;;;;33.95;25.62;101452.48;108248;1285;21973;-63
2023/05/02 09:16:12;;;;;;;3.80;0.90;;;;;;;34.16;25.58;101454.14;108142;1285;21982;-62
2023/05/02 09:18:42;;;;;;;3.20;1.00;;;;;;;34.30;25.47;101455.91;108133;1285;23641;-64
2023/05/02 09:21:12;;;;;;;2.90;1.40;;;;;;;34.42;25.60;101461.89;108120;1285;23722;-61
2023/05/02 09:23:41;;;;;;;3.20;1.20;;;;;;;34.52;24.99;101462.86;108174;1285;22002;-60
2023/05/02 09:26:17;;;;;;;2.60;0.80;;;;;;;34.49;24.27;101461.86;108147;1285;21987;-61
2023/05/02 09:28:50;;;;;;;2.00;1.00;;;;;;;34.18;23.17;101463.19;108217;1285;22665;-61
2023/05/02 09:31:21;;;;;;;4.00;0.80;;;;;;;33.93;24.40;101467.40;108124;1285;21983;-59
2023/05/02 09:33:47;;;;;;;2.20;0.90;;;;;;;34.00;24.19;101466.58;108166;1285;21986;-59
2023/05/02 09:36:14;;;;;;;4.60;1.10;;;;;;;33.83;22.91;101464.16;108188;1285;21984;-59
2023/05/02 09:38:41;;;;;;;3.20;1.00;;;;;;;33.60;23.63;101462.25;108273;1285;21997;-63
2023/05/02 09:41:07;;;;;;;3.00;0.90;;;;;;;33.68;24.74;101461.56;108234;1285;22042;-63
2023/05/02 09:43:32;;;;;;;3.00;0.90;;;;;;;33.92;25.01;101460.77;108177;1285;22024;-61
2023/05/02 09:46:08;;;;;;;4.10;1.10;;;;;;;34.13;23.36;101456.25;108145;1285;21986;-63
2023/05/02 09:48:55;;;;;;;2.20;0.90;;;;;;;34.16;23.24;101460.48;108132;1285;21991;-62
2023/05/02 09:51:22;;;;;;;1.90;0.90;;;;;;;33.66;21.29;101460.80;108153;1285;22004;-63
2023/05/02 09:53:48;;;;;;;2.80;0.90;;;;;;;32.98;21.54;101458.23;108230;1285;23641;-64
2023/05/02 09:56:14;;;;;;;2.30;0.90;;;;;;;32.68;22.55;101459.84;108146;1277;21971;-60
2023/05/02 09:58:40;;;;;;;3.00;0.90;;;;;;;32.58;23.28;101458.58;108196;1285;21994;-63
2023/05/02 10:01:06;;;;;;;2.70;0.90;;;;;;;32.61;22.93;101456.47;108158;1285;22011;-61
2023/05/02 10:03:34;;;;;;;3.30;0.90;;;;;;;32.78;23.46;101459.34;108130;1285;21985;-63
2023/05/02 10:05:59;;;;;;;2.60;1.00;;;;;;;33.03;23.77;101458.06;108189;1285;21984;-61
2023/05/02 10:08:27;;;;;;;1.90;0.80;;;;;;;33.49;24.32;101459.86;108200;1285;22059;-63
2023/05/02 10:10:57;;;;;;;3.20;1.00;;;;;;;34.13;24.59;101454.20;108278;1285;24404;-63
2023/05/02 10:13:26;;;;;;;3.10;1.00;;;;;;;34.56;22.19;101448.30;108239;1285;23612;-61
2023/05/02 10:16:03;;;;;;;2.90;0.80;;;;;;;34.45;22.44;101446.98;108188;1285;22019;-63
2023/05/02 10:18:47;;;;;;;3.60;1.10;;;;;;;34.45;23.36;101445.20;108181;1285;21986;-62
2023/05/02 10:21:16;;;;;;;4.00;1.10;;;;;;;34.77;22.53;101446.05;108136;1285;21980;-62
2023/05/02 10:23:45;;;;;;;3.30;1.10;;;;;;;34.96;22.85;101449.47;108209;1285;21989;-62
2023/05/02 10:26:15;;;;;;;2.30;0.80;;;;;;;34.83;21.71;101446.41;108158;1285;22622;-62
2023/05/02 10:28:41;;;;;;;2.20;0.80;;;;;;;34.16;21.13;101448.83;108109;1285;21996;-61
2023/05/02 10:31:10;;;;;;;3.60;0.90;;;;;;;33.82;22.82;101453.18;108144;1285;21980;-63
2023/05/02 10:33:37;;;;;;;1.90;0.80;;;;;;;34.02;23.40;101452.88;108030;1285;21986;-62
2023/05/02 10:36:04;;;;;;;2.70;0.80;;;;;;;34.28;22.19;101451.51;108245;1285;22007;-62
2023/05/02 10:38:30;;;;;;;3.80;1.40;;;;;;;34.01;21.10;101453.52;108172;1285;23653;-63
2023/05/02 10:40:58;;;;;;;1.00;0.60;;;;;;;33.63;21.35;101452.16;108172;1285;21994;-63
2023/05/02 10:43:26;;;;;;;4.90;0.90;;;;;;;33.38;20.97;101454.80;108194;1285;21956;-61
2023/05/02 10:45:52;;;;;;;8.80;1.10;;;;;;;33.19;20.08;101458.73;108144;1285;23640;-62
2023/05/02 10:48:25;;;;;;;2.50;1.40;;;;;;;32.86;21.36;101458.10;108207;1285;22001;-61
2023/05/02 10:50:54;;;;;;;4.20;1.30;;;;;;;32.84;21.79;101460.05;108212;1285;21988;-62
2023/05/02 10:53:31;;;;;;;3.90;1.00;;;;;;;33.46;23.42;101454.95;108297;1285;22001;-61
2023/05/02 10:56:13;;;;;;;5.50;1.20;;;;;;;34.36;22.08;101450.04;108214;1285;22000;-62
2023/05/02 10:58:39;;;;;;;2.60;0.90;;;;;;;34.67;22.26;101451.45;108128;1285;21938;-62
2023/05/02 11:01:25;;;;;;;3.00;0.90;;;;;;;35.12;23.07;101449.52;108270;1284;21983;-61
2023/05/02 11:04:00;;;;;;;4.30;1.00;;;;;;;35.55;21.36;101447.81;108231;1285;21982;-60
2023/05/02 11:06:32;;;;;;;5.80;1.30;;;;;;;35.49;21.18;101445.66;108014;1285;21991;-61
2023/05/02 11:09:17;;;;;;;2.70;0.90;;;;;;;35.48;21.49;101443.94;108170;1285;21988;-61
2023/05/02 11:11:56;;;;;;;6.50;1.00;;;;;;;35.36;20.74;101443.02;108124;1285;21984;-60
2023/05/02 11:14:24;;;;;;;2.50;1.00;;;;;;;35.31;20.99;101445.13;108212;1285;21980;-62
2023/05/02 11:17:05;;;;;;;4.50;1.20;;;;;;;35.44;21.80;101444.03;108142;1285;23722;-60
2023/05/02 11:19:37;;;;;;;9.90;1.10;;;;;;;35.81;22.18;101440.44;108104;1285;22057;-63